Manakin Sabot, Virginia
Current Conditions -  °F | °C
As of 1:54 PM on Tuesday 21 Oct 2014 (Local Time) from KOFP Reporting Station
Clear Clear  
Wind Chill: 70°   Ceiling: Unl
Heat Index: 70°   Visibility: 10mi
Dew Point: 47°   Wind: 9mph
Humidity: 44%   Direction: 230°SW
Pressure: 29.84"   Gusts: NA
Location:  37.65°N, 77.72°W
Report Text: KOFP 211754Z AUTO 23008KT 10SM CLR 21/08 A2984 RMK AO2 SLP104 T02110083 10222 20117 58017
Loading
Personal Weather Stations






























Interactive Weather Map
Tropical Storm Tracking
New forecast layout! Learn more

10-Day Weather Forecast

Advertisements
Track Severe Weather on mobile